aviador You're here:

PABA Decoded Metar

BARTER ISLAND in AK, USA
Report Time2017-08-20 18:52:00
UTC Time2017-08-20 19:13:54
Flight Rules ifr IFR
Wind070° at 13 kt
W.Decomp.*RWY 07: 11.6 kt HW 5.9 kt LCW
W.Rank070° ranks 6
Current wind is above 070° avg. (11.2)
Visibility9999 m
Phenomena:N/A
Clouds:Overcast 009 Hf
Expected CloudBase > 400 ft AGL from Temp-Dew spread
Ceiling900 ft
Temp05°C (ISA -10)
Dew Point04°C (93% RH)
AAT-1.0°C
QNH1015 hPa
Density Alt-1,158 ft
Elevation7 ft
Report Wrong Elevation
Raw Report
PABA 201852Z AUTO 07013KT 10SM OVC009 05/04 A2996=

Extra information for PABA:More info

Airport Information Weather charts Add Link Nearby Venues Social comments

AIRNAV info for PABA